createdAt,value
2023-02-04T00:00:29.245Z,103289.78
2023-02-04T00:02:57.511Z,103278.31
2023-02-04T00:05:25.329Z,103282.72
2023-02-04T00:07:54.501Z,103282.78
2023-02-04T00:10:22.380Z,103283.63
2023-02-04T00:12:50.134Z,103280.00
2023-02-04T00:15:17.958Z,103279.91
2023-02-04T00:17:45.727Z,103272.75
2023-02-04T00:20:13.942Z,103272.81
2023-02-04T00:22:41.791Z,103265.53
2023-02-04T00:25:11.114Z,103277.56
2023-02-04T00:27:39.085Z,103277.56
2023-02-04T00:30:08.620Z,103274.19
2023-02-04T00:32:36.767Z,103277.56
2023-02-04T00:35:04.894Z,103286.75
2023-02-04T00:37:32.659Z,103277.72
2023-02-04T00:40:00.442Z,103283.34
2023-02-04T00:42:29.619Z,103281.69
2023-02-04T00:44:57.380Z,103288.00
2023-02-04T00:47:25.096Z,103289.94
2023-02-04T00:49:56.038Z,103285.41
2023-02-04T00:52:23.877Z,103295.34
2023-02-04T00:54:51.631Z,103287.09
2023-02-04T00:57:20.323Z,103292.47
2023-02-04T00:59:49.397Z,103299.56
2023-02-04T01:02:18.416Z,103296.34
2023-02-04T01:04:46.459Z,103297.22
2023-02-04T01:07:14.401Z,103293.47
2023-02-04T01:09:42.162Z,103289.88
2023-02-04T01:12:09.900Z,103301.00
2023-02-04T01:14:37.646Z,103297.19
2023-02-04T01:17:06.966Z,103311.38
2023-02-04T01:19:34.751Z,103312.25
2023-02-04T01:22:02.661Z,103316.56
2023-02-04T01:24:30.429Z,103313.69
2023-02-04T01:26:58.195Z,103317.94
2023-02-04T01:29:26.069Z,103325.03
2023-02-04T01:31:53.901Z,103319.59
2023-02-04T01:34:23.086Z,103333.28
2023-02-04T01:36:50.810Z,103331.63
2023-02-04T01:39:18.749Z,103326.19
2023-02-04T01:41:47.453Z,103327.06
2023-02-04T01:44:15.324Z,103337.03
2023-02-04T01:46:43.230Z,103344.28
2023-02-04T01:49:12.199Z,103334.31
2023-02-04T01:51:41.361Z,103346.91
2023-02-04T01:54:11.805Z,103336.06
2023-02-04T01:56:41.234Z,103338.78
2023-02-04T01:59:13.434Z,103343.28
2023-02-04T02:01:43.474Z,103340.47
2023-02-04T02:04:13.261Z,103343.28
2023-02-04T02:06:46.765Z,103342.34
2023-02-04T02:09:14.518Z,103348.56
2023-02-04T02:11:42.421Z,103357.78
2023-02-04T02:14:10.323Z,103365.91
2023-02-04T02:16:38.293Z,103364.97
2023-02-04T02:19:09.016Z,103369.38
2023-02-04T02:21:42.767Z,103368.44
2023-02-04T02:24:27.182Z,103364.78
2023-02-04T02:26:56.553Z,103367.50
2023-02-04T02:29:24.862Z,103373.06
2023-02-04T02:31:53.092Z,103364.03
2023-02-04T02:34:20.908Z,103362.19
2023-02-04T02:36:48.707Z,103371.13
2023-02-04T02:39:16.531Z,103368.31
2023-02-04T02:41:45.838Z,103367.38
2023-02-04T02:44:15.223Z,103375.53
2023-02-04T02:46:43.038Z,103377.31
2023-02-04T02:49:15.642Z,103382.03
2023-02-04T02:51:43.485Z,103377.41
2023-02-04T02:54:22.746Z,103380.94
2023-02-04T02:56:52.161Z,103374.63
2023-02-04T02:59:20.777Z,103371.91
2023-02-04T03:01:51.834Z,103371.84
2023-02-04T03:04:21.408Z,103378.31
2023-02-04T03:06:49.680Z,103381.97
2023-02-04T03:09:17.775Z,103385.59
2023-02-04T03:11:45.568Z,103384.75
2023-02-04T03:14:14.896Z,103369.47
2023-02-04T03:16:44.370Z,103376.66
2023-02-04T03:19:13.569Z,103379.41
2023-02-04T03:21:42.344Z,103376.72
2023-02-04T03:24:10.578Z,103362.44
2023-02-04T03:26:38.646Z,103364.28
2023-02-04T03:29:08.206Z,103366.97
2023-02-04T03:31:37.866Z,103373.25
2023-02-04T03:34:05.863Z,103375.94
2023-02-04T03:36:33.870Z,103383.22
2023-02-04T03:39:01.982Z,103377.81
2023-02-04T03:41:32.075Z,103382.44
2023-02-04T03:43:59.772Z,103373.38
2023-02-04T03:46:28.626Z,103370.69
2023-02-04T03:48:57.823Z,103381.50
2023-02-04T03:51:27.360Z,103385.06
2023-02-04T03:53:55.112Z,103378.78
2023-02-04T03:56:22.881Z,103377.97
2023-02-04T03:58:50.895Z,103385.16
2023-02-04T04:01:18.735Z,103387.00
2023-02-04T04:03:46.513Z,103385.22
2023-02-04T04:06:15.614Z,103382.53
2023-02-04T04:08:43.495Z,103390.69
2023-02-04T04:11:11.237Z,103391.78
2023-02-04T04:13:38.974Z,103409.78
2023-02-04T04:16:07.681Z,103401.81
2023-02-04T04:18:35.848Z,103413.41
2023-02-04T04:21:03.778Z,103414.25
2023-02-04T04:23:32.962Z,103416.88
2023-02-04T04:26:00.738Z,103418.59
2023-02-04T04:28:28.488Z,103410.44
2023-02-04T04:30:56.473Z,103416.72
2023-02-04T04:33:24.246Z,103411.31
2023-02-04T04:35:51.957Z,103405.91
2023-02-04T04:38:19.694Z,103415.78
2023-02-04T04:40:48.773Z,103413.03
2023-02-04T04:43:16.483Z,103414.84
2023-02-04T04:45:44.239Z,103412.97
2023-02-04T04:48:12.058Z,103420.13
2023-02-04T04:50:39.834Z,103417.50
2023-02-04T04:53:11.167Z,103418.34
2023-02-04T04:55:39.211Z,103420.06
2023-02-04T04:58:09.368Z,103428.19
2023-02-04T05:00:37.213Z,103423.59
2023-02-04T05:03:05.063Z,103424.53
2023-02-04T05:05:32.804Z,103425.44
2023-02-04T05:08:00.590Z,103434.41
2023-02-04T05:10:28.318Z,103431.84
2023-02-04T05:12:56.055Z,103434.66
2023-02-04T05:15:25.174Z,103434.66
2023-02-04T05:17:53.632Z,103441.81
2023-02-04T05:20:21.326Z,103448.22
2023-02-04T05:22:49.099Z,103447.28
2023-02-04T05:25:17.687Z,103441.88
2023-02-04T05:27:45.599Z,103439.19
2023-02-04T05:30:14.259Z,103437.41
2023-02-04T05:32:43.613Z,103436.47
2023-02-04T05:35:11.476Z,103444.59
2023-02-04T05:37:39.239Z,103446.41
2023-02-04T05:40:08.131Z,103453.69
2023-02-04T05:42:35.908Z,103453.69
2023-02-04T05:45:03.696Z,103449.16
2023-02-04T05:47:31.460Z,103455.44
2023-02-04T05:50:00.627Z,103459.03
2023-02-04T05:52:28.435Z,103460.91
2023-02-04T05:54:56.137Z,103461.84
2023-02-04T05:57:23.888Z,103466.31
2023-02-04T05:59:51.672Z,103465.38
2023-02-04T06:02:19.627Z,103464.38
2023-02-04T06:04:47.347Z,103467.84
2023-02-04T06:07:16.506Z,103459.75
2023-02-04T06:09:44.801Z,103476.84
2023-02-04T06:12:12.563Z,103468.69
2023-02-04T06:14:40.264Z,103474.09
2023-02-04T06:17:07.964Z,103476.72
2023-02-04T06:19:35.674Z,103472.25
2023-02-04T06:22:06.192Z,103473.19
2023-02-04T06:24:35.291Z,103478.66
2023-02-04T06:27:03.009Z,103480.50
2023-02-04T06:29:30.789Z,103486.78
2023-02-04T06:31:58.586Z,103488.53
2023-02-04T06:34:26.405Z,103493.88
2023-02-04T06:36:54.174Z,103500.28
2023-02-04T06:39:22.112Z,103505.69
2023-02-04T06:41:51.218Z,103512.88
2023-02-04T06:44:18.961Z,103511.16
2023-02-04T06:46:46.928Z,103514.69
2023-02-04T06:49:14.714Z,103502.06
2023-02-04T06:51:42.456Z,103505.63
2023-02-04T06:54:10.225Z,103515.56
2023-02-04T06:56:38.025Z,103513.75
2023-02-04T06:59:07.160Z,103516.34
2023-02-04T07:01:34.880Z,103512.75
2023-02-04T07:04:02.661Z,103516.34
2023-02-04T07:06:30.371Z,103513.59
2023-02-04T07:08:58.206Z,103519.91
2023-02-04T07:11:25.988Z,103525.31
2023-02-04T07:13:53.764Z,103525.41
2023-02-04T07:16:22.922Z,103529.03
2023-02-04T07:18:50.775Z,103529.03
2023-02-04T07:21:18.514Z,103524.56
2023-02-04T07:23:46.366Z,103532.56
2023-02-04T07:26:14.146Z,103537.91
2023-02-04T07:28:42.434Z,103532.50
2023-02-04T07:31:10.265Z,103536.97
2023-02-04T07:33:39.623Z,103530.72
2023-02-04T07:36:07.954Z,103533.59
2023-02-04T07:38:35.706Z,103551.56
2023-02-04T07:41:03.499Z,103547.88
2023-02-04T07:43:31.323Z,103537.91
2023-02-04T07:45:59.111Z,103546.88
2023-02-04T07:48:26.921Z,103557.69
2023-02-04T07:50:56.017Z,103561.19
2023-02-04T07:53:23.799Z,103560.25
2023-02-04T07:55:51.508Z,103554.84
2023-02-04T07:58:19.267Z,103561.03
2023-02-04T08:00:47.031Z,103561.03
2023-02-04T08:03:14.819Z,103564.56
2023-02-04T08:05:42.602Z,103562.72
2023-02-04T08:08:11.774Z,103567.22
2023-02-04T08:10:39.668Z,103586.03
2023-02-04T08:13:07.419Z,103584.28
2023-02-04T08:15:35.181Z,103586.84
2023-02-04T08:18:03.024Z,103587.69
2023-02-04T08:20:31.491Z,103587.59
2023-02-04T08:22:59.521Z,103595.72
2023-02-04T08:25:29.729Z,103587.53
2023-02-04T08:27:57.545Z,103592.00
2023-02-04T08:30:25.491Z,103601.88
2023-02-04T08:32:53.400Z,103593.72
2023-02-04T08:35:21.227Z,103599.00
2023-02-04T08:37:49.057Z,103601.69
2023-02-04T08:40:17.254Z,103607.94
2023-02-04T08:42:46.905Z,103609.66
2023-02-04T08:45:14.703Z,103605.88
2023-02-04T08:47:42.445Z,103615.75
2023-02-04T08:50:11.471Z,103614.78
2023-02-04T08:52:39.243Z,103615.56
2023-02-04T08:55:07.751Z,103618.25
2023-02-04T08:57:35.930Z,103617.25
2023-02-04T09:00:05.816Z,103616.28
2023-02-04T09:02:33.604Z,103625.34
2023-02-04T09:05:01.337Z,103614.44
2023-02-04T09:07:29.116Z,103627.03
2023-02-04T09:09:56.888Z,103631.47
2023-02-04T09:12:24.650Z,103636.81
2023-02-04T09:14:52.433Z,103637.59
2023-02-04T09:17:21.530Z,103643.69
2023-02-04T09:19:49.333Z,103641.84
2023-02-04T09:22:17.190Z,103641.72
2023-02-04T09:24:45.013Z,103645.25
2023-02-04T09:27:12.776Z,103648.88
2023-02-04T09:29:40.570Z,103647.94
2023-02-04T09:32:08.339Z,103648.78
2023-02-04T09:34:37.502Z,103639.72
2023-02-04T09:37:05.387Z,103642.28
2023-02-04T09:39:33.125Z,103639.44
2023-02-04T09:42:00.950Z,103645.69
2023-02-04T09:44:29.729Z,103652.81
2023-02-04T09:47:00.374Z,103643.75
2023-02-04T09:49:29.155Z,103647.22
2023-02-04T09:51:58.323Z,103656.09
2023-02-04T09:54:26.532Z,103658.75
2023-02-04T09:56:54.369Z,103658.63
2023-02-04T09:59:24.471Z,103662.06
2023-02-04T10:01:56.415Z,103662.84
2023-02-04T10:04:25.093Z,103667.41
2023-02-04T10:06:53.038Z,103667.34
2023-02-04T10:09:22.185Z,103671.19
2023-02-04T10:11:50.054Z,103675.63
2023-02-04T10:14:22.213Z,103676.41
2023-02-04T10:16:57.204Z,103680.03
2023-02-04T10:19:27.980Z,103684.41
2023-02-04T10:21:56.072Z,103681.78
2023-02-04T10:24:28.037Z,103681.72
2023-02-04T10:26:55.889Z,103676.22
2023-02-04T10:29:25.897Z,103684.41
2023-02-04T10:31:54.680Z,103687.22
2023-02-04T10:34:24.639Z,103691.84
2023-02-04T10:36:54.540Z,103684.41
2023-02-04T10:39:26.043Z,103678.84
2023-02-04T10:41:55.675Z,103677.81
2023-02-04T10:44:28.127Z,103685.81
2023-02-04T10:47:02.817Z,103686.50
2023-02-04T10:49:31.370Z,103683.81
2023-02-04T10:51:59.205Z,103682.63
2023-02-04T10:54:35.720Z,103692.28
2023-02-04T10:57:13.908Z,103688.41
2023-02-04T10:59:42.565Z,103686.41
2023-02-04T11:02:33.756Z,103697.13
2023-02-04T11:05:02.135Z,103690.78
2023-02-04T11:07:30.680Z,103695.38
2023-02-04T11:09:59.883Z,103691.56
2023-02-04T11:12:41.091Z,103691.22
2023-02-04T11:15:44.428Z,103680.47
2023-02-04T11:18:14.645Z,103675.91
2023-02-04T11:20:42.520Z,103673.38
2023-02-04T11:23:18.680Z,103673.19
2023-02-04T11:25:48.764Z,103672.06
2023-02-04T11:28:17.788Z,103679.19
2023-02-04T11:30:45.621Z,103675.38
2023-02-04T11:33:26.323Z,103678.34
2023-02-04T11:36:04.583Z,103685.44
2023-02-04T11:38:34.154Z,103671.72
2023-02-04T11:41:03.605Z,103667.91
2023-02-04T11:43:35.816Z,103673.00
2023-02-04T11:46:06.320Z,103674.59
2023-02-04T11:48:37.235Z,103670.00
2023-02-04T11:51:13.018Z,103670.00
2023-02-04T11:53:40.903Z,103674.50
2023-02-04T11:56:18.251Z,103672.66
2023-02-04T11:58:46.090Z,103672.53
2023-02-04T12:01:21.123Z,103669.75
2023-02-04T12:03:51.241Z,103671.38
2023-02-04T12:06:23.408Z,103663.88
2023-02-04T12:08:51.549Z,103670.06
2023-02-04T12:11:30.499Z,103667.19
2023-02-04T12:14:00.704Z,103663.69
2023-02-04T12:16:28.562Z,103665.28
2023-02-04T12:18:56.391Z,103657.84
2023-02-04T12:21:24.161Z,103669.25
2023-02-04T12:23:51.908Z,103666.53
2023-02-04T12:26:19.631Z,103672.03
2023-02-04T12:28:48.771Z,103673.72
2023-02-04T12:31:16.651Z,103679.97
2023-02-04T12:33:44.445Z,103673.16
2023-02-04T12:36:12.128Z,103672.22
2023-02-04T12:38:40.623Z,103681.31
2023-02-04T12:41:08.525Z,103680.28
2023-02-04T12:43:36.260Z,103688.22
2023-02-04T12:46:05.876Z,103684.38
2023-02-04T12:48:33.648Z,103682.47
2023-02-04T12:51:01.472Z,103674.47
2023-02-04T12:53:29.184Z,103671.94
2023-02-04T12:55:57.854Z,103670.00
2023-02-04T12:58:25.795Z,103674.41
2023-02-04T13:00:53.538Z,103675.28
2023-02-04T13:03:23.720Z,103677.31
2023-02-04T13:05:51.454Z,103675.34
2023-02-04T13:08:19.173Z,103665.44
2023-02-04T13:10:51.764Z,103670.06
2023-02-04T13:13:20.300Z,103669.91
2023-02-04T13:15:48.364Z,103670.06
2023-02-04T13:18:17.505Z,103662.72
2023-02-04T13:20:47.025Z,103661.97
2023-02-04T13:23:14.906Z,103663.88
2023-02-04T13:25:43.824Z,103655.59
2023-02-04T13:28:11.638Z,103647.19
2023-02-04T13:30:39.515Z,103654.06
2023-02-04T13:33:07.263Z,103647.38
2023-02-04T13:35:35.188Z,103645.34
2023-02-04T13:38:04.390Z,103646.97
2023-02-04T13:40:32.116Z,103649.56
2023-02-04T13:42:59.908Z,103652.25
2023-02-04T13:45:27.778Z,103654.00
2023-02-04T13:47:55.601Z,103650.22
2023-02-04T13:50:23.372Z,103652.94
2023-02-04T13:52:51.257Z,103646.47
2023-02-04T13:55:20.397Z,103656.44
2023-02-04T13:57:48.130Z,103651.00
2023-02-04T14:00:16.512Z,103646.53
2023-02-04T14:02:44.261Z,103647.28
2023-02-04T14:05:12.032Z,103650.94
2023-02-04T14:07:39.794Z,103657.34
2023-02-04T14:10:08.597Z,103661.13
2023-02-04T14:12:37.775Z,103659.44
2023-02-04T14:15:06.023Z,103662.16
2023-02-04T14:17:33.790Z,103663.03
2023-02-04T14:20:01.546Z,103660.41
2023-02-04T14:22:29.294Z,103651.28
2023-02-04T14:24:57.065Z,103639.63
2023-02-04T14:27:24.887Z,103640.59
2023-02-04T14:29:54.054Z,103641.53
2023-02-04T14:32:21.952Z,103644.44
2023-02-04T14:34:49.701Z,103643.69
2023-02-04T14:37:17.393Z,103638.28
2023-02-04T14:39:45.139Z,103639.91
2023-02-04T14:42:12.879Z,103644.38
2023-02-04T14:44:40.602Z,103641.66
2023-02-04T14:47:09.712Z,103642.63
2023-02-04T14:49:38.109Z,103648.84
2023-02-04T14:52:06.335Z,103647.81
2023-02-04T14:54:34.149Z,103650.53
2023-02-04T14:57:02.113Z,103652.38
2023-02-04T14:59:29.837Z,103657.69
2023-02-04T15:01:57.658Z,103656.72
2023-02-04T15:04:26.855Z,103654.00
2023-02-04T15:06:54.562Z,103644.91
2023-02-04T15:09:22.398Z,103645.84
2023-02-04T15:11:50.149Z,103649.47
2023-02-04T15:14:17.962Z,103655.94
2023-02-04T15:16:48.524Z,103660.47
2023-02-04T15:19:17.677Z,103656.78
2023-02-04T15:21:46.856Z,103656.72
2023-02-04T15:24:14.687Z,103662.09
2023-02-04T15:26:42.488Z,103659.38
2023-02-04T15:29:10.337Z,103668.47
2023-02-04T15:31:38.195Z,103674.84
2023-02-04T15:34:06.280Z,103674.00
2023-02-04T15:36:34.072Z,103680.38
2023-02-04T15:39:03.218Z,103679.53
2023-02-04T15:41:31.019Z,103679.66
2023-02-04T15:43:58.806Z,103689.81
2023-02-04T15:46:27.389Z,103687.16
2023-02-04T15:48:55.238Z,103683.63
2023-02-04T15:51:23.030Z,103682.81
2023-02-04T15:53:50.826Z,103683.09
2023-02-04T15:56:20.216Z,103681.31
2023-02-04T15:58:48.008Z,103681.41
2023-02-04T16:01:15.834Z,103684.97
2023-02-04T16:03:44.767Z,103685.06
2023-02-04T16:06:12.521Z,103682.63
2023-02-04T16:08:40.301Z,103689.06
2023-02-04T16:11:08.121Z,103686.34
2023-02-04T16:13:37.541Z,103693.53
2023-02-04T16:16:05.741Z,103690.88
2023-02-04T16:18:33.535Z,103690.00
2023-02-04T16:21:01.373Z,103699.00
2023-02-04T16:23:29.142Z,103700.97
2023-02-04T16:25:56.928Z,103697.47
2023-02-04T16:28:25.376Z,103702.00
2023-02-04T16:30:54.748Z,103704.72
2023-02-04T16:33:22.887Z,103714.69
2023-02-04T16:35:59.255Z,103700.22
2023-02-04T16:38:27.841Z,103707.56
2023-02-04T16:40:56.026Z,103703.09
2023-02-04T16:43:24.524Z,103706.75
2023-02-04T16:45:52.667Z,103712.19
2023-02-04T16:48:21.746Z,103713.25
2023-02-04T16:50:49.536Z,103719.63
2023-02-04T16:53:17.270Z,103716.09
2023-02-04T16:55:45.680Z,103718.97
2023-02-04T16:58:14.259Z,103717.03
2023-02-04T17:00:44.064Z,103721.59
2023-02-04T17:03:12.776Z,103724.31
2023-02-04T17:05:42.961Z,103716.25
2023-02-04T17:08:13.128Z,103719.81
2023-02-04T17:10:58.694Z,103714.47
2023-02-04T17:13:26.665Z,103713.56
2023-02-04T17:16:00.445Z,103715.41
2023-02-04T17:18:29.519Z,103719.00
2023-02-04T17:20:59.449Z,103720.09
2023-02-04T17:23:28.382Z,103725.50
2023-02-04T17:25:56.543Z,103723.75
2023-02-04T17:28:24.653Z,103723.75
2023-02-04T17:30:52.487Z,103724.69
2023-02-04T17:33:20.652Z,103718.38
2023-02-04T17:35:48.716Z,103724.69
2023-02-04T17:38:17.933Z,103724.69
2023-02-04T17:40:46.603Z,103731.06
2023-02-04T17:43:14.407Z,103733.75
2023-02-04T17:45:42.117Z,103742.88
2023-02-04T17:48:09.948Z,103740.22
2023-02-04T17:50:40.146Z,103740.28
2023-02-04T17:53:09.224Z,103745.97
2023-02-04T17:55:40.090Z,103746.91
2023-02-04T17:58:16.260Z,103750.50
2023-02-04T18:00:46.658Z,103751.38
2023-02-04T18:03:15.504Z,103752.25
2023-02-04T18:05:46.928Z,103744.19
2023-02-04T18:08:16.886Z,103751.38
2023-02-04T18:10:47.172Z,103750.50
2023-02-04T18:13:17.311Z,103746.97
2023-02-04T18:15:48.199Z,103748.81
2023-02-04T18:18:27.144Z,103747.06
2023-02-04T18:20:59.791Z,103746.28
2023-02-04T18:23:29.379Z,103743.56
2023-02-04T18:26:03.168Z,103749.88
2023-02-04T18:28:30.706Z,103739.97
2023-02-04T18:31:01.793Z,103739.97
2023-02-04T18:33:34.621Z,103746.47
2023-02-04T18:36:02.974Z,103752.81
2023-02-04T18:38:34.393Z,103751.13
2023-02-04T18:41:27.614Z,103746.63
2023-02-04T18:44:02.463Z,103761.13
2023-02-04T18:46:33.200Z,103754.91
2023-02-04T18:49:07.401Z,103754.00
2023-02-04T18:51:40.252Z,103754.94
2023-02-04T18:54:36.529Z,103746.81
2023-02-04T18:57:29.139Z,103758.63
2023-02-04T19:00:26.179Z,103762.31
2023-02-04T19:02:56.675Z,103760.59
2023-02-04T19:05:29.933Z,103766.13
2023-02-04T19:08:18.581Z,103764.34
2023-02-04T19:10:46.332Z,103755.34
2023-02-04T19:13:20.039Z,103761.78
2023-02-04T19:15:59.698Z,103758.28
2023-02-04T19:18:29.733Z,103757.47
2023-02-04T19:21:09.533Z,103752.09
2023-02-04T19:23:38.965Z,103741.38
2023-02-04T19:26:37.894Z,103751.34
2023-02-04T19:29:41.118Z,103754.13
2023-02-04T19:32:35.336Z,103751.41
2023-02-04T19:35:17.957Z,103744.28
2023-02-04T19:37:48.875Z,103742.53
2023-02-04T19:40:30.255Z,103735.41
2023-02-04T19:43:05.287Z,103736.44
2023-02-04T19:45:35.438Z,103756.44
2023-02-04T19:48:14.754Z,103756.53
2023-02-04T19:50:42.522Z,103750.25
2023-02-04T19:53:16.652Z,103756.53
2023-02-04T19:55:46.073Z,103741.28
2023-02-04T19:58:18.264Z,103741.22
2023-02-04T20:00:57.503Z,103744.00
2023-02-04T20:03:41.553Z,103739.50
2023-02-04T20:06:27.319Z,103734.06
2023-02-04T20:09:03.572Z,103731.41
2023-02-04T20:11:53.731Z,103726.13
2023-02-04T20:14:27.667Z,103725.22
2023-02-04T20:16:58.519Z,103734.34
2023-02-04T20:19:37.882Z,103733.53
2023-02-04T20:22:39.110Z,103729.94
2023-02-04T20:25:46.889Z,103734.53
2023-02-04T20:28:31.040Z,103741.75
2023-02-04T20:30:59.588Z,103743.63
2023-02-04T20:33:32.896Z,103756.25
2023-02-04T20:36:34.692Z,103764.44
2023-02-04T20:39:24.631Z,103766.31
2023-02-04T20:41:52.423Z,103759.13
2023-02-04T20:44:27.246Z,103757.41
2023-02-04T20:47:03.234Z,103754.78
2023-02-04T20:49:41.263Z,103752.97
2023-02-04T20:52:48.603Z,103752.97
2023-02-04T20:55:25.191Z,103748.50
2023-02-04T20:57:53.852Z,103743.00
2023-02-04T21:00:30.333Z,103734.00
2023-02-04T21:03:08.562Z,103729.47
2023-02-04T21:05:37.670Z,103730.28
2023-02-04T21:08:23.124Z,103729.41
2023-02-04T21:10:50.838Z,103741.94
2023-02-04T21:13:18.612Z,103739.22
2023-02-04T21:15:46.492Z,103732.00
2023-02-04T21:18:14.331Z,103723.03
2023-02-04T21:20:43.443Z,103726.63
2023-02-04T21:23:11.258Z,103730.28
2023-02-04T21:25:38.974Z,103729.41
2023-02-04T21:28:07.135Z,103727.63
2023-02-04T21:30:35.006Z,103734.88
2023-02-04T21:33:03.351Z,103737.59
2023-02-04T21:35:31.311Z,103734.00
2023-02-04T21:38:04.063Z,103734.94
2023-02-04T21:40:32.594Z,103735.88
2023-02-04T21:43:00.483Z,103735.88
2023-02-04T21:45:28.289Z,103742.16
2023-02-04T21:47:56.075Z,103736.88
2023-02-04T21:50:23.840Z,103745.03
2023-02-04T21:52:51.690Z,103746.88
2023-02-04T21:55:22.455Z,103751.41
2023-02-04T21:57:51.123Z,103746.03
2023-02-04T22:00:19.973Z,103747.03
2023-02-04T22:02:47.664Z,103743.47
2023-02-04T22:05:15.408Z,103740.75
2023-02-04T22:07:43.206Z,103736.28
2023-02-04T22:10:13.018Z,103743.53
2023-02-04T22:12:42.308Z,103750.75
2023-02-04T22:15:21.129Z,103754.44
2023-02-04T22:17:49.307Z,103744.69
2023-02-04T22:20:17.506Z,103751.03
2023-02-04T22:22:46.191Z,103745.69
2023-02-04T22:25:16.038Z,103753.19
2023-02-04T22:27:45.343Z,103759.69
2023-02-04T22:30:15.337Z,103756.94
2023-02-04T22:32:43.121Z,103761.38
2023-02-04T22:35:12.168Z,103745.22
2023-02-04T22:37:40.954Z,103752.41
2023-02-04T22:40:11.103Z,103749.03
2023-02-04T22:42:39.124Z,103757.06
2023-02-04T22:45:10.307Z,103760.69
2023-02-04T22:47:39.163Z,103753.66
2023-02-04T22:50:07.588Z,103748.22
2023-02-04T22:52:35.311Z,103743.81
2023-02-04T22:55:03.160Z,103740.13
2023-02-04T22:57:30.879Z,103733.06
2023-02-04T22:59:59.167Z,103734.28
2023-02-04T23:02:28.280Z,103733.28
2023-02-04T23:04:56.026Z,103726.00
2023-02-04T23:07:23.876Z,103721.41
2023-02-04T23:09:51.882Z,103725.88
2023-02-04T23:12:19.624Z,103724.19
2023-02-04T23:14:49.568Z,103728.59
2023-02-04T23:17:18.765Z,103726.72
2023-02-04T23:19:47.882Z,103716.75
2023-02-04T23:22:16.531Z,103718.47
2023-02-04T23:24:44.863Z,103705.84
2023-02-04T23:27:12.836Z,103702.22
2023-02-04T23:29:41.445Z,103703.06
2023-02-04T23:32:09.829Z,103698.56
2023-02-04T23:34:37.625Z,103695.88
2023-02-04T23:37:06.849Z,103708.56
2023-02-04T23:39:34.646Z,103707.63
2023-02-04T23:42:02.466Z,103699.53
2023-02-04T23:44:30.162Z,103696.88
2023-02-04T23:46:57.891Z,103696.88
2023-02-04T23:49:25.820Z,103696.03
2023-02-04T23:51:53.630Z,103691.47
2023-02-04T23:54:23.650Z,103682.50
2023-02-04T23:56:51.803Z,103680.72
2023-02-04T23:59:19.829Z,103680.72
